Thunder radar more information blitzortung!


Radar de pluja more information rain snow radar


Visita la nostra xarxa de llocs de meteo:

Template documentation
and downloads

And another site



No particular awareness of the weather is required.    There are no Weather-warnings

Pagina Historial Weather Underground text

Diari Resum May 29, 2017 Unitats:  Mètric    Imperial   Tant
« Previous Dia
SegĂźent Dia »
Diari Setmana Mensual Anual Personalitzada
  Maxima: Minima: Media:
Temperatura: -17.8 °C -9.4 °C -5.1 °C
Punt de rosada: -17.8 °C -14.6 °C -13.1 °C
Humitat: Humidity % 29 % 41 %
Wind Speed: 0 km/h 0 km/h 10.8 km/h
RĂ fegues de vent: 0 km/h - -
Vent:- - SE
Pression baro: 0 hPa 34293.4 hPa -
Precipitacions: 0 mm    
Historical Graphs
 
 
Dades de taula per May 29, 2017
Temps Temperatura Punt de rosada Pression baro Vent Wind Speed RĂ fegues de vent Humitat Rainfall Rate (Hourly)
-17.8 °C -17.8 °C 0 hPa Calm     Humidity % 0 mm
00:00 -9.4 °C -12.9 °C 34395 hPa WSW 5.1 km/h 7.7 km/h 66 % 0 mm
00:03 -6.9 °C -11.8 °C 34462.7 hPa Calm     57 % 0 mm
00:08 -7 °C -11.8 °C 34462.7 hPa Calm     57 % 0 mm
00:10 -9.4 °C -12.9 °C 34361.1 hPa WSW 2.6 km/h 5.1 km/h 66 % 0 mm
00:20 -9.3 °C -12.7 °C 34395 hPa Calm   5.1 km/h 67 % 0 mm
00:40 -9.3 °C -12.7 °C 34395 hPa Calm   5.1 km/h 67 % 0 mm
00:50 -9.3 °C -12.7 °C 34395 hPa Calm   2.6 km/h 67 % 0 mm
01:00 -9.3 °C -12.7 °C 34395 hPa Calm     67 % 0 mm
01:10 -9.3 °C -12.7 °C 34395 hPa Calm     67 % 0 mm
01:20 -9.3 °C -12.7 °C 34395 hPa Calm     67 % 0 mm
01:30 -9.4 °C -12.7 °C 34395 hPa Calm     68 % 0 mm
01:40 -9.4 °C -12.7 °C 34395 hPa Calm     68 % 0 mm
01:50 -9.4 °C -12.7 °C 34395 hPa Calm     68 % 0 mm
02:00 -9.2 °C -12.5 °C 34395 hPa Calm     68 % 0 mm
02:10 -8.9 °C -12.2 °C 34395 hPa Calm     68 % 0 mm
02:20 -8.9 °C -12.3 °C 34395 hPa NE 2.6 km/h 5.1 km/h 67 % 0 mm
02:30 -8.6 °C -12.1 °C 34395 hPa NE 2.6 km/h 2.6 km/h 67 % 0 mm
02:40 -8.4 °C -12 °C 34395 hPa NE 2.6 km/h 5.1 km/h 66 % 0 mm
02:50 -8.5 °C -12.1 °C 34395 hPa Calm   2.6 km/h 66 % 0 mm
03:00 -8.2 °C -12.1 °C 34395 hPa Calm   2.6 km/h 64 % 0 mm
03:10 -8.2 °C -12.2 °C 34395 hPa SW 5.1 km/h 5.1 km/h 63 % 0 mm
03:20 -8.2 °C -12.3 °C 34395 hPa SW 2.6 km/h 5.1 km/h 62 % 0 mm
03:30 -8.2 °C -12.3 °C 34395 hPa SW 2.6 km/h 5.1 km/h 62 % 0 mm
03:40 -8 °C -12.1 °C 34395 hPa Calm   5.1 km/h 62 % 0 mm
03:50 -7.7 °C -11.8 °C 34395 hPa SW 2.6 km/h 5.1 km/h 62 % 0 mm
04:00 -7.3 °C -11.6 °C 34395 hPa SW 5.1 km/h 5.1 km/h 61 % 0 mm
04:15 -6.4 °C -11.2 °C 34395 hPa Calm   5.1 km/h 58 % 0 mm
04:25 -6.4 °C -11.5 °C 34395 hPa East 2.6 km/h 5.1 km/h 56 % 0 mm
04:45 -5.7 °C -11.2 °C 34361.1 hPa ENE 5.1 km/h 10.3 km/h 53 % 0 mm
04:55 -5.5 °C -11.4 °C 34428.8 hPa SE 5.1 km/h 5.1 km/h 51 % 0 mm
05:05 -5.4 °C -11.3 °C 34428.8 hPa SSW 2.6 km/h 5.1 km/h 51 % 0 mm
05:15 -5.3 °C -11.2 °C 34361.1 hPa SW 5.1 km/h 7.7 km/h 51 % 0 mm
05:25 -5 °C -11.1 °C 34395 hPa SW 2.6 km/h 5.1 km/h 50 % 0 mm
10:34 -4.9 °C -11.2 °C 34395 hPa WSW 3.1 km/h 3.7 km/h 49 % 0 mm
10:39 -4.7 °C -11.2 °C 34395 hPa SSE 3.1 km/h 3.1 km/h 48 % 0 mm
10:40 -4.7 °C -11.2 °C 34395 hPa SE 5.1 km/h 5.1 km/h 48 % 0 mm
10:45 -4.7 °C -11.3 °C 34395 hPa SE 8.5 km/h 8.5 km/h 47 % 0 mm
10:50 -4.9 °C -11.5 °C 34395 hPa ESE 9 km/h 9 km/h 47 % 0 mm
10:55 -4.7 °C -11.3 °C 34395 hPa NE 6.8 km/h 6.8 km/h 47 % 0 mm
11:00 -4.5 °C -11.2 °C 34395 hPa SW 6 km/h 6 km/h 47 % 0 mm
11:05 -4.1 °C -11 °C 34395 hPa South 4.2 km/h   46 % 0 mm
11:10 -4 °C -11.1 °C 34395 hPa SE 6.8 km/h 6.8 km/h 45 % 0 mm
11:15 -4.2 °C -11.5 °C 34395 hPa South 9 km/h 9 km/h 44 % 0 mm
11:20 -4.2 °C -11.5 °C 34395 hPa SSE 9 km/h 9 km/h 44 % 0 mm
11:25 -4.1 °C -11.5 °C 34395 hPa ESE 9 km/h 9 km/h 43 % 0 mm
11:30 -3.7 °C -11.2 °C 34395 hPa SW 6 km/h 6 km/h 43 % 0 mm
11:35 -3.3 °C -10.9 °C 34395 hPa SSW 3.1 km/h 3.1 km/h 43 % 0 mm
11:40 -2.9 °C -10.7 °C 34395 hPa ESE 6 km/h 6 km/h 42 % 0 mm
11:45 -3.2 °C -11.1 °C 34395 hPa SE 6 km/h 6 km/h 41 % 0 mm
11:50 -3.4 °C -11.6 °C 34395 hPa NE 9 km/h 9 km/h 40 % 0 mm
11:55 -3.8 °C -12.1 °C 34395 hPa North 15 km/h 15 km/h 39 % 0 mm
12:00 -3.8 °C -12.1 °C 34395 hPa SE 10.3 km/h 10.3 km/h 39 % 0 mm
12:05 -3.7 °C -11.8 °C 34395 hPa East 11.9 km/h 11.9 km/h 40 % 0 mm
12:10 -3.4 °C -11.7 °C 34395 hPa South 6.8 km/h 6.8 km/h 39 % 0 mm
12:15 -3.5 °C -11.6 °C 34395 hPa ENE 10.3 km/h 10.3 km/h 40 % 0 mm
12:20 -3.5 °C -11.8 °C 34395 hPa SSE 3.1 km/h 3.1 km/h 39 % 0 mm
12:25 -3.3 °C -11.7 °C 34395 hPa ESE 6.8 km/h 6.8 km/h 39 % 0 mm
12:30 -3.4 °C -11.7 °C 34395 hPa SSE 11.9 km/h 11.9 km/h 39 % 0 mm
12:35 -3.4 °C -11.9 °C 34395 hPa NNE 11.1 km/h 11.1 km/h 38 % 0 mm
12:40 -3.3 °C -11.6 °C 34395 hPa ESE 9.8 km/h 9.8 km/h 39 % 0 mm
12:45 -3.2 °C -11.8 °C 34395 hPa East 6 km/h 6 km/h 38 % 0 mm
12:50 -3 °C -11.6 °C 34395 hPa South 11.9 km/h 11.9 km/h 38 % 0 mm
12:55 -3.1 °C -11.7 °C 34395 hPa East 16.1 km/h 16.1 km/h 38 % 0 mm
13:00 -3.1 °C -11.9 °C 34395 hPa ESE 25.4 km/h 25.4 km/h 37 % 0 mm
13:05 -3.4 °C -12.4 °C 34395 hPa ESE 20.9 km/h 20.9 km/h 36 % 0 mm
13:10 -3.2 °C -12.3 °C 34361.1 hPa South 11.9 km/h 11.9 km/h 36 % 0 mm
13:15 -3.1 °C -12.2 °C 34361.1 hPa ENE 20.9 km/h 20.9 km/h 36 % 0 mm
13:20 -3.1 °C -12.1 °C 34361.1 hPa SW 23.8 km/h 23.8 km/h 36 % 0 mm
13:25 -2.9 °C -12.4 °C 34361.1 hPa ESE 23.8 km/h 23.8 km/h 34 % 0 mm
13:30 -3 °C -12.3 °C 34361.1 hPa WSW 17.9 km/h 17.9 km/h 35 % 0 mm
13:35 -3.1 °C -12.4 °C 34361.1 hPa SE 15.3 km/h 15.3 km/h 35 % 0 mm
13:40 -2.9 °C -12.3 °C 34361.1 hPa SSE 15 km/h 15 km/h 35 % 0 mm
13:45 -3.1 °C -12.6 °C 34361.1 hPa ESE 26.9 km/h 26.9 km/h 34 % 0 mm
13:50 -3.2 °C -12.7 °C 34361.1 hPa NNE 20.9 km/h 20.9 km/h 34 % 0 mm
13:55 -3.1 °C -12.9 °C 34361.1 hPa ESE 17.9 km/h 17.9 km/h 33 % 0 mm
14:00 -3.1 °C -12.9 °C 34361.1 hPa ESE 15 km/h 16.1 km/h 33 % 0 mm
14:05 -3.1 °C -12.6 °C 34361.1 hPa ESE 23.8 km/h 23.8 km/h 34 % 0 mm
14:10 -3.1 °C -12.6 °C 34361.1 hPa ENE 15.3 km/h 15.3 km/h 34 % 0 mm
14:15 -3.1 °C -13.1 °C 34361.1 hPa East 32.8 km/h 32.8 km/h 32 % 0 mm
14:20 -3.1 °C -13.1 °C 34361.1 hPa East 20.9 km/h 20.9 km/h 32 % 0 mm
14:25 -3.1 °C -13.1 °C 34361.1 hPa ENE 20.9 km/h 20.9 km/h 32 % 0 mm
14:30 -3.1 °C -13.4 °C 34361.1 hPa ESE 23.8 km/h 23.8 km/h 31 % 0 mm
14:35 -2.9 °C -13.2 °C 34361.1 hPa NE 16.6 km/h 16.6 km/h 31 % 0 mm
14:40 -2.8 °C -13.2 °C 34327.3 hPa ESE 15 km/h 15 km/h 31 % 0 mm
14:45 -3.1 °C -13.3 °C 34327.3 hPa ESE 18.2 km/h 28.5 km/h 31 % 0 mm
14:50 -3.1 °C -13.3 °C 34327.3 hPa ESE 18.2 km/h 25.9 km/h 31 % 0 mm
14:55 -2.9 °C -13.2 °C 34327.3 hPa East 12.9 km/h 31.1 km/h 31 % 0 mm
15:00 -2.8 °C -13.4 °C 34327.3 hPa ESE 20.8 km/h 31.1 km/h 30 % 0 mm
15:05 -2.7 °C -13.3 °C 34327.3 hPa SE 7.7 km/h 36.2 km/h 30 % 0 mm
15:10 -3 °C -13.6 °C 34327.3 hPa SE 32.8 km/h 32.8 km/h 30 % 0 mm
15:15 -3.1 °C -13.6 °C 34327.3 hPa East 26.9 km/h 26.9 km/h 30 % 0 mm
15:20 -2.9 °C -13.5 °C 34327.3 hPa ENE 26.9 km/h 26.9 km/h 30 % 0 mm
15:25 -3 °C -13.6 °C 34293.4 hPa SSE 29.8 km/h 29.8 km/h 30 % 0 mm
15:30 -2.9 °C -13.5 °C 34293.4 hPa East 33.2 km/h 33.2 km/h 30 % 0 mm
15:35 -3.1 °C -13.7 °C 34293.4 hPa SE 20.9 km/h 20.9 km/h 30 % 0 mm
15:40 -3.2 °C -13.7 °C 34327.3 hPa East 23.8 km/h 23.8 km/h 30 % 0 mm
15:45 -3.1 °C -13.7 °C 34327.3 hPa ESE 23.8 km/h 23.8 km/h 30 % 0 mm
15:50 -3.1 °C -13.6 °C 34327.3 hPa ESE 32.8 km/h 32.8 km/h 30 % 0 mm
15:55 -3.1 °C -13.9 °C 34293.4 hPa ESE 20.9 km/h 20.9 km/h 29 % 0 mm
16:00 -3 °C -13.8 °C 34293.4 hPa ENE 32.8 km/h 32.8 km/h 29 % 0 mm
16:05 -2.9 °C -13.5 °C 34293.4 hPa ENE 18.3 km/h 18.3 km/h 30 % 0 mm
16:10 -3.1 °C -13.7 °C 34327.3 hPa East 32.8 km/h 32.8 km/h 30 % 0 mm
16:15 -3.1 °C -13.6 °C 34327.3 hPa ESE 26.9 km/h 26.9 km/h 30 % 0 mm
16:20 -3 °C -13.6 °C 34327.3 hPa ESE 20.9 km/h 20.9 km/h 30 % 0 mm
16:25 -2.7 °C -13.3 °C 34327.3 hPa SSW 15 km/h 15 km/h 30 % 0 mm
16:35 -3 °C -13.6 °C 34293.4 hPa East 11.9 km/h 11.9 km/h 30 % 0 mm
16:40 -3.1 °C -13.9 °C 34293.4 hPa WSW 20.9 km/h 20.9 km/h 29 % 0 mm
16:45 -2.9 °C -13.5 °C 34293.4 hPa ENE 15.3 km/h 15.3 km/h 30 % 0 mm
16:50 -3.3 °C -13.8 °C 34327.3 hPa NE 29.8 km/h 29.8 km/h 30 % 0 mm
16:55 -3.4 °C -13.9 °C 34327.3 hPa East 29.8 km/h 29.8 km/h 30 % 0 mm
17:00 -3.7 °C -14.1 °C 34327.3 hPa ESE 28.2 km/h 28.2 km/h 30 % 0 mm
17:05 -3.6 °C -14.1 °C 34293.4 hPa ESE 15 km/h 15 km/h 30 % 0 mm
17:10 -3.8 °C -14.2 °C 34293.4 hPa East 26.9 km/h 26.9 km/h 30 % 0 mm
17:15 -3.8 °C -14 °C 34293.4 hPa ESE 15 km/h 15 km/h 31 % 0 mm
17:20 -4 °C -13.9 °C 34293.4 hPa ESE 32.8 km/h 32.8 km/h 32 % 0 mm
17:25 -4 °C -13.9 °C 34293.4 hPa SE 25.1 km/h 25.1 km/h 32 % 0 mm
17:30 -4.1 °C -14 °C 34293.4 hPa SE 23.8 km/h 23.8 km/h 32 % 0 mm
17:35 -4.1 °C -14 °C 34293.4 hPa ENE 26.9 km/h 26.9 km/h 32 % 0 mm
17:40 -4.2 °C -14.1 °C 34293.4 hPa ESE 24.3 km/h 24.3 km/h 32 % 0 mm
17:45 -4.3 °C -14.1 °C 34293.4 hPa ESE 23.8 km/h 23.8 km/h 32 % 0 mm
17:50 -4.4 °C -14.6 °C 34293.4 hPa NE 26.9 km/h 26.9 km/h 31 % 0 mm
17:55 -4.4 °C -14.6 °C 34293.4 hPa ESE 23.8 km/h 23.8 km/h 31 % 0 mm
18:00 -4.5 °C -14.6 °C 34293.4 hPa ENE 20.9 km/h 20.9 km/h 31 % 0 mm
18:05 -4.5 °C -14.3 °C 34293.4 hPa SE 15 km/h 15 km/h 32 % 0 mm
18:10 -4.6 °C -14.4 °C 34293.4 hPa SW 11.9 km/h 11.9 km/h 32 % 0 mm
18:15 -4.6 °C -14.4 °C 34293.4 hPa NE 9 km/h 9.8 km/h 32 % 0 mm
18:20 -4.6 °C -14.4 °C 34293.4 hPa ESE 23.8 km/h 23.8 km/h 32 % 0 mm
18:25 -4.7 °C -14.5 °C 34293.4 hPa NNE 17.9 km/h 17.9 km/h 32 % 0 mm
18:30 -4.6 °C -14.2 °C 34293.4 hPa ESE 14 km/h 14 km/h 33 % 0 mm
18:35 -4.7 °C -14.3 °C 34293.4 hPa East 15 km/h 15 km/h 33 % 0 mm
18:40 -4.7 °C -14.1 °C 34293.4 hPa ESE 15 km/h 15 km/h 34 % 0 mm
18:45 -4.7 °C -14.1 °C 34293.4 hPa ESE 16.6 km/h 16.6 km/h 34 % 0 mm
18:50 -4.8 °C -13.8 °C 34293.4 hPa SSE 15 km/h 15 km/h 35 % 0 mm
18:55 -4.8 °C -13.8 °C 34293.4 hPa ENE 17.9 km/h 17.9 km/h 35 % 0 mm
19:00 -4.8 °C -13.8 °C 34293.4 hPa East 17.9 km/h 17.9 km/h 35 % 0 mm
19:05 -4.8 °C -13.9 °C 34293.4 hPa ESE 17.9 km/h 17.9 km/h 35 % 0 mm
19:10 -4.8 °C -13.9 °C 34293.4 hPa ESE 15 km/h 15 km/h 35 % 0 mm
19:15 -4.8 °C -13.8 °C 34293.4 hPa South 6 km/h 6 km/h 35 % 0 mm
19:20 -4.7 °C -13.6 °C 34327.3 hPa WSW 6 km/h 6 km/h 36 % 0 mm
19:25 -4.7 °C -13.5 °C 34327.3 hPa SW 8 km/h   36 % 0 mm
19:30 -4.6 °C -13.7 °C 34327.3 hPa SW 6 km/h 6 km/h 35 % 0 mm
19:35 -4.6 °C -13.7 °C 34327.3 hPa SW 6 km/h 6 km/h 35 % 0 mm
19:40 -4.6 °C -13.7 °C 34327.3 hPa SSE 3.1 km/h   35 % 0 mm
19:45 -4.6 °C -13.7 °C 34327.3 hPa SW 3.1 km/h 3.1 km/h 35 % 0 mm
19:50 -4.7 °C -14.1 °C 34327.3 hPa WSW 6.3 km/h 6.3 km/h 34 % 0 mm
19:55 -4.8 °C -14.1 °C 34327.3 hPa SW 6 km/h 6 km/h 34 % 0 mm
20:00 -4.8 °C -14.1 °C 34327.3 hPa SSW 6 km/h 6 km/h 34 % 0 mm
20:05 -4.8 °C -14.1 °C 34327.3 hPa SW 6 km/h 6 km/h 34 % 0 mm
20:10 -4.8 °C -14.1 °C 34327.3 hPa SW 6 km/h   34 % 0 mm
20:15 -4.9 °C -14.2 °C 34327.3 hPa WSW 5.1 km/h 5.1 km/h 34 % 0 mm
20:20 -4.9 °C -14.2 °C 34327.3 hPa Calm     34 % 0 mm
20:25 -4.9 °C -14.2 °C 34327.3 hPa Calm     34 % 0 mm
20:30 -5 °C -14.6 °C 34327.3 hPa SW 6 km/h 6 km/h 33 % 0 mm
20:35 -5.1 °C -14.3 °C 34327.3 hPa SW 3.1 km/h   34 % 0 mm
20:40 -5.1 °C -14.3 °C 34293.4 hPa SW 3.1 km/h   34 % 0 mm
20:45 -5.1 °C -14.4 °C 34293.4 hPa Calm     34 % 0 mm
20:50 -5.2 °C -14.4 °C 34293.4 hPa WNW 3.1 km/h   34 % 0 mm
20:55 -5.2 °C -14.5 °C 34293.4 hPa NE 5.1 km/h 5.1 km/h 34 % 0 mm
21:00 -5.3 °C -14.6 °C 34293.4 hPa NE 6 km/h 6 km/h 34 % 0 mm
21:05 -5.3 °C -14.3 °C 34293.4 hPa East 9 km/h 9 km/h 35 % 0 mm
21:10 -5.4 °C -14.2 °C 34293.4 hPa ENE 9 km/h 9.3 km/h 36 % 0 mm
21:15 -5.4 °C -14 °C 34293.4 hPa NNE 11.1 km/h 11.1 km/h 37 % 0 mm
21:20 -5.5 °C -13.8 °C 34293.4 hPa SW 9 km/h 9 km/h 38 % 0 mm
21:25 -5.6 °C -13.9 °C 34293.4 hPa WSW 6 km/h   38 % 0 mm
21:30 -5.7 °C -13.8 °C 34293.4 hPa SSE 3.1 km/h   39 % 0 mm
21:35 -5.7 °C -13.8 °C 34327.3 hPa South 6 km/h 6.3 km/h 39 % 0 mm
21:40 -5.7 °C -13.8 °C 34327.3 hPa South 3.1 km/h 3.1 km/h 39 % 0 mm
21:45 -5.8 °C -13.8 °C 34327.3 hPa NE 6.3 km/h   39 % 0 mm
21:50 -5.8 °C -13.7 °C 34327.3 hPa ENE 6 km/h 6 km/h 40 % 0 mm
21:55 -5.9 °C -13.8 °C 34327.3 hPa ENE 3.1 km/h   40 % 0 mm
22:00 -5.9 °C -13.8 °C 34327.3 hPa NNE 6 km/h 6 km/h 40 % 0 mm
22:05 -5.9 °C -13.6 °C 34327.3 hPa East 6 km/h 6 km/h 41 % 0 mm
22:10 -5.9 °C -13.6 °C 34327.3 hPa ENE 2.3 km/h   41 % 0 mm
22:15 -6 °C -13.7 °C 34327.3 hPa SW 3.1 km/h 3.1 km/h 41 % 0 mm
22:20 -6.1 °C -13.8 °C 34293.4 hPa Calm     41 % 0 mm
22:25 -6.2 °C -13.7 °C 34293.4 hPa Calm     42 % 0 mm
22:30 -6.3 °C -13.7 °C 34293.4 hPa Calm     42 % 0 mm
22:35 -6.3 °C -13.7 °C 34293.4 hPa South 6 km/h 6 km/h 42 % 0 mm
22:40 -6.3 °C -13.9 °C 34293.4 hPa SSE 3.7 km/h 3.7 km/h 41 % 0 mm
22:45 -7.9 °C -13.1 °C 34327.3 hPa NNE 2.6 km/h 5.1 km/h 54 % 0 mm
22:50 -6.3 °C -13.8 °C 34293.4 hPa Calm     42 % 0 mm
22:55 -6.4 °C -13.8 °C 34293.4 hPa Calm     42 % 0 mm
23:00 -6.4 °C -13.8 °C 34293.4 hPa East 3.1 km/h 3.7 km/h 42 % 0 mm
23:05 -6.4 °C -13.8 °C 34327.3 hPa North 3.1 km/h 3.1 km/h 42 % 0 mm
23:10 -6.4 °C -13.8 °C 34327.3 hPa Calm     42 % 0 mm
23:15 -6.4 °C -13.8 °C 34327.3 hPa NW 3.1 km/h 3.1 km/h 42 % 0 mm
23:20 -6.5 °C -13.7 °C 34327.3 hPa Calm     43 % 0 mm
23:25 -6.5 °C -13.7 °C 34327.3 hPa NE 6 km/h 6 km/h 43 % 0 mm
23:30 -6.6 °C -13.8 °C 34327.3 hPa NNE 3.7 km/h 3.7 km/h 43 % 0 mm
23:35 -6.6 °C -13.6 °C 34327.3 hPa NNE 3.1 km/h   44 % 0 mm
23:40 -6.6 °C -13.7 °C 34327.3 hPa NE 6.3 km/h 6.3 km/h 44 % 0 mm
23:45 -6.6 °C -13.7 °C 34327.3 hPa NNE 6 km/h   44 % 0 mm
23:50 -6.6 °C -13.7 °C 34361.1 hPa NE 4.2 km/h 4.2 km/h 44 % 0 mm
23:55 -6.7 °C -13.7 °C 34361.1 hPa NNE 6.3 km/h 6.3 km/h 44 % 0 mm
Meteo Sesrovires
Elogis d' Weather Underground - 3.5 mb

Guio original per  Jim McMurry - jmcmurry@mwt.net Adaptat per a la plantilla per  Wim van der Kuil - Leuven-Template.eu

Trobareu la nostra informacio del temps tambe a:

Weather Underground

AWEKAS